aviador You're here:

KPHL Decoded Metar

PHILADELPHIA in PA, USA
Report Time2018-01-18 12:54:00
UTC Time2018-01-18 14:00:03
Flight Rules vfr VFR
Wind280° at 07 kt
W.Decomp.*RWY 27: 6.6 kt HW 2.4 kt RCW
RWY 26: 6.1 kt HW 3.5 kt RCW
RWY 35: 3.5 kt HW 6.1 kt LCW
W.Rank280° ranks 14
Current wind is below 280° avg. (10.6)
Visibility9999 m
Phenomena:N/A
Clouds:Few 120 Hf
Few 250 Hf
Expected CloudBase > 2,800 ft AGL from Temp-Dew spread
CeilingNone
Temp-7°C (ISA -22)
Dew Point-14°C (58% RH)
AAT-12.8°C
QNH1020 hPa
Density Alt-2,871 ft
Elevation59 ft
Report Wrong Elevation
Raw Report
KPHL 181254Z 28007KT 10SM FEW120 FEW250 M07/M14 A3013 RMK AO2
SLP202 T10721144=

Extra information for KPHL:More info

Metar Taf Metar & Taf Last 4 Metars F.Rules Stats Wind Profile Meteogram Temp Stats Airport Information Weather charts Add Link Nearby VenuesMetar ALERT Operation Metar Decoded Social comments

AIRNAV info for KPHL